Time;durP1;ratioP1;P1;durP2;ratioP2;P2;SDS_P1;SDS_P2;PMS_P1;PMS_P2;Temp;Humidity;BMP_temperature;BMP_pressure;BME280_temperature;BME280_humidity;BME280_pressure;Samples;Min_cycle;Max_cycle;Signal;HPM_P1;HPM_P2
2022/11/27 00:00:04;;;;;;;25.60;7.13;;;5.90;99.90;;;;;;5093997;28;20408;-64
2022/11/27 00:02:31;;;;;;;19.10;6.18;;;5.80;99.90;;;;;;5093208;28;20047;-64
2022/11/27 00:04:58;;;;;;;15.07;5.53;;;5.80;99.90;;;;;;5093357;28;20060;-64
2022/11/27 00:07:25;;;;;;;18.40;6.50;;;5.70;99.90;;;;;;5093721;28;20048;-65
2022/11/27 00:09:53;;;;;;;24.35;7.18;;;5.80;99.90;;;;;;5093940;28;20118;-64
2022/11/27 00:12:20;;;;;;;18.08;6.53;;;5.70;99.90;;;;;;5094340;28;20564;-65
2022/11/27 00:14:48;;;;;;;13.57;6.20;;;5.70;99.90;;;;;;5092523;28;20043;-64
2022/11/27 00:17:15;;;;;;;17.90;6.45;;;5.70;99.90;;;;;;5093358;28;20043;-64
2022/11/27 00:19:42;;;;;;;17.90;6.55;;;5.70;99.90;;;;;;5090471;28;20502;-65
2022/11/27 00:22:08;;;;;;;14.02;5.95;;;5.70;99.90;;;;;;5093688;28;20511;-65
2022/11/27 00:24:35;;;;;;;14.07;7.00;;;5.70;99.90;;;;;;5091364;28;20425;-64
2022/11/27 00:27:04;;;;;;;15.73;7.45;;;5.70;99.90;;;;;;5093066;28;20041;-64
2022/11/27 00:29:31;;;;;;;22.23;7.13;;;5.70;99.90;;;;;;5094540;28;20048;-64
2022/11/27 00:31:58;;;;;;;20.20;6.50;;;5.70;99.90;;;;;;5092462;28;20056;-64
2022/11/27 00:34:25;;;;;;;16.65;6.45;;;5.70;99.90;;;;;;5093391;28;20097;-64
2022/11/27 00:36:52;;;;;;;14.77;6.18;;;5.70;99.90;;;;;;5094350;28;20058;-64
2022/11/27 00:39:19;;;;;;;16.73;6.80;;;5.70;99.90;;;;;;5093650;28;20075;-64
2022/11/27 00:41:46;;;;;;;11.18;6.10;;;5.70;99.90;;;;;;5093037;28;20048;-64
2022/11/27 00:44:14;;;;;;;16.30;6.55;;;5.60;99.90;;;;;;5092836;28;20504;-64
2022/11/27 00:46:41;;;;;;;17.38;6.53;;;5.60;99.90;;;;;;5092652;28;20506;-64
2022/11/27 00:49:12;;;;;;;20.45;7.15;;;5.60;99.90;;;;;;5092942;28;20416;-64
2022/11/27 00:51:39;;;;;;;18.38;7.13;;;5.50;99.90;;;;;;5093065;28;20059;-64
2022/11/27 00:54:06;;;;;;;18.05;6.40;;;5.60;99.90;;;;;;5092518;28;20125;-64
2022/11/27 00:56:34;;;;;;;19.77;7.10;;;5.50;99.90;;;;;;5092910;28;20051;-64
2022/11/27 00:59:02;;;;;;;18.52;6.43;;;5.50;99.90;;;;;;5094056;28;20434;-64
2022/11/27 01:01:32;;;;;;;21.58;6.50;;;5.50;99.90;;;;;;5091952;28;20491;-64
2022/11/27 01:04:01;;;;;;;16.65;6.22;;;5.50;99.90;;;;;;5093946;28;20089;-65
2022/11/27 01:06:30;;;;;;;24.38;5.88;;;5.50;99.90;;;;;;5092917;28;20129;-64
2022/11/27 01:08:57;;;;;;;13.35;5.35;;;5.50;99.90;;;;;;5091883;28;20055;-64
2022/11/27 01:11:26;;;;;;;11.95;5.75;;;5.50;99.90;;;;;;5093805;28;20484;-63
2022/11/27 01:13:55;;;;;;;13.02;5.57;;;5.50;99.90;;;;;;5091553;28;20469;-63
2022/11/27 01:16:24;;;;;;;23.42;7.85;;;5.50;99.90;;;;;;5093711;28;20166;-64
2022/11/27 01:18:56;;;;;;;11.95;5.85;;;5.50;99.90;;;;;;5093392;28;20044;-65
2022/11/27 01:21:23;;;;;;;10.05;6.32;;;5.50;99.90;;;;;;5089805;28;20047;-65
2022/11/27 01:23:51;;;;;;;18.00;6.00;;;5.40;99.90;;;;;;5092507;28;20404;-64
2022/11/27 01:26:19;;;;;;;13.13;5.88;;;5.40;99.90;;;;;;5093261;28;20133;-64
2022/11/27 01:28:46;;;;;;;22.35;6.38;;;5.40;99.90;;;;;;5092720;28;20040;-64
2022/11/27 01:31:15;;;;;;;15.73;5.93;;;5.30;99.90;;;;;;5092405;28;20051;-64
2022/11/27 01:33:43;;;;;;;14.98;6.15;;;5.30;99.90;;;;;;5092193;28;20496;-64
2022/11/27 01:36:13;;;;;;;14.95;5.93;;;5.30;99.90;;;;;;5091109;28;20051;-64
2022/11/27 01:38:41;;;;;;;13.40;5.88;;;5.30;99.90;;;;;;5091842;28;20450;-64
2022/11/27 01:41:12;;;;;;;12.88;6.50;;;5.30;99.90;;;;;;5091792;28;20106;-64
2022/11/27 01:43:41;;;;;;;15.52;6.40;;;5.30;99.90;;;;;;5091241;28;20054;-64
2022/11/27 01:46:20;;;;;;;20.13;6.65;;;5.30;99.90;;;;;;5093147;28;20079;-63
2022/11/27 01:48:47;;;;;;;12.93;6.22;;;5.30;99.90;;;;;;5092740;28;20109;-63
2022/11/27 01:51:16;;;;;;;13.07;6.82;;;5.20;99.90;;;;;;5092043;28;20048;-63
2022/11/27 01:53:43;;;;;;;18.50;7.22;;;5.20;99.90;;;;;;5092937;28;20473;-63
2022/11/27 01:56:10;;;;;;;15.00;8.20;;;5.20;99.90;;;;;;5091158;28;20044;-63
2022/11/27 01:58:38;;;;;;;13.32;5.88;;;5.20;99.90;;;;;;5091305;28;20044;-63
2022/11/27 02:01:06;;;;;;;17.58;6.32;;;5.20;99.90;;;;;;5091731;28;20548;-63
2022/11/27 02:03:33;;;;;;;12.23;6.20;;;5.20;99.90;;;;;;5091282;28;20083;-64
2022/11/27 02:06:00;;;;;;;17.58;6.40;;;5.20;99.90;;;;;;5092428;28;20048;-64
2022/11/27 02:08:29;;;;;;;11.88;6.03;;;5.20;99.90;;;;;;5091542;28;20044;-64
2022/11/27 02:11:03;;;;;;;15.90;6.75;;;5.20;99.90;;;;;;5088801;28;20484;-64
2022/11/27 02:13:35;;;;;;;14.20;5.70;;;5.20;99.90;;;;;;5089242;28;20064;-64
2022/11/27 02:16:11;;;;;;;18.52;7.00;;;5.20;99.90;;;;;;5092532;28;20048;-64
2022/11/27 02:18:44;;;;;;;14.88;6.22;;;5.20;99.90;;;;;;5090605;28;20043;-64
2022/11/27 02:21:18;;;;;;;14.02;5.97;;;5.20;99.90;;;;;;5091142;28;20139;-64
2022/11/27 02:24:12;;;;;;;15.05;7.03;;;5.30;99.90;;;;;;5091504;28;20063;-64
2022/11/27 02:27:04;;;;;;;21.92;7.25;;;5.20;99.90;;;;;;5090309;28;20048;-64
2022/11/27 02:29:34;;;;;;;16.90;6.43;;;5.30;99.90;;;;;;5090921;28;20051;-64
2022/11/27 02:32:08;;;;;;;15.35;6.43;;;5.30;99.90;;;;;;5090804;28;20407;-64
2022/11/27 02:34:43;;;;;;;18.02;5.75;;;5.30;99.90;;;;;;5091342;28;20058;-64
2022/11/27 02:37:16;;;;;;;14.38;5.95;;;5.30;99.90;;;;;;5089479;28;20161;-63
2022/11/27 02:39:52;;;;;;;15.68;6.95;;;5.30;99.90;;;;;;5089930;28;20093;-64
2022/11/27 02:42:20;;;;;;;16.05;6.45;;;5.40;99.90;;;;;;5090904;28;20066;-63
2022/11/27 02:44:56;;;;;;;14.70;6.22;;;5.40;99.90;;;;;;5092108;28;20047;-63
2022/11/27 02:47:24;;;;;;;16.42;6.43;;;5.50;99.90;;;;;;5091573;28;20044;-63
2022/11/27 02:49:55;;;;;;;14.98;6.20;;;5.40;99.90;;;;;;5090967;28;20483;-64
2022/11/27 02:52:24;;;;;;;20.02;6.72;;;5.50;99.90;;;;;;5091255;28;20071;-64
2022/11/27 02:54:54;;;;;;;13.57;7.43;;;5.50;99.90;;;;;;5089911;28;20051;-64
2022/11/27 02:57:24;;;;;;;14.57;6.70;;;5.50;99.90;;;;;;5090556;28;20054;-64
2022/11/27 02:59:55;;;;;;;12.87;6.30;;;5.60;99.90;;;;;;5090487;28;20078;-63
2022/11/27 03:02:30;;;;;;;17.30;6.95;;;5.60;99.90;;;;;;5091819;28;20784;-64
2022/11/27 03:05:00;;;;;;;11.75;6.15;;;5.60;99.90;;;;;;5090886;28;20200;-64
2022/11/27 03:07:33;;;;;;;14.57;5.78;;;5.60;99.90;;;;;;5090268;28;20450;-64
2022/11/27 03:10:06;;;;;;;9.82;5.75;;;5.60;99.90;;;;;;5090794;28;20048;-64
2022/11/27 03:12:33;;;;;;;14.07;6.03;;;5.70;99.90;;;;;;5092055;28;20105;-64
2022/11/27 03:15:01;;;;;;;24.88;6.90;;;5.70;99.90;;;;;;5088241;28;20044;-64
2022/11/27 03:17:42;;;;;;;11.02;5.25;;;5.70;99.90;;;;;;5090522;28;20047;-64
2022/11/27 03:20:14;;;;;;;16.67;6.95;;;5.70;99.90;;;;;;5090877;28;20144;-64
2022/11/27 03:22:41;;;;;;;11.00;5.55;;;5.70;99.90;;;;;;5088930;28;20458;-64
2022/11/27 03:25:08;;;;;;;11.98;5.70;;;5.80;99.90;;;;;;5091630;28;20507;-64
2022/11/27 03:27:40;;;;;;;21.30;6.22;;;5.80;99.90;;;;;;5089114;28;20079;-64
2022/11/27 03:30:10;;;;;;;12.73;5.43;;;5.80;99.90;;;;;;5090611;28;20044;-64
2022/11/27 03:32:38;;;;;;;12.18;5.78;;;5.80;99.90;;;;;;5091556;28;20492;-64
2022/11/27 03:35:07;;;;;;;15.48;6.00;;;5.90;99.90;;;;;;5091123;28;20483;-64
2022/11/27 03:37:33;;;;;;;11.13;5.25;;;5.80;99.90;;;;;;5093477;28;20047;-63
2022/11/27 03:40:01;;;;;;;13.20;6.13;;;5.90;99.90;;;;;;5094567;28;20048;-64
2022/11/27 03:42:34;;;;;;;14.45;5.45;;;5.90;99.90;;;;;;5093534;28;20411;-63
2022/11/27 03:45:08;;;;;;;15.20;5.40;;;5.90;99.90;;;;;;5095365;28;20142;-64
2022/11/27 03:47:45;;;;;;;13.13;5.30;;;5.90;99.90;;;;;;5094127;28;20154;-64
2022/11/27 03:50:20;;;;;;;14.98;5.70;;;5.90;99.90;;;;;;5093629;28;20086;-64
2022/11/27 03:52:58;;;;;;;13.18;5.70;;;5.90;99.90;;;;;;5094286;28;20044;-64
2022/11/27 03:55:31;;;;;;;13.95;5.57;;;6.00;99.90;;;;;;5092168;28;20492;-63
2022/11/27 03:58:02;;;;;;;19.50;5.82;;;6.00;99.90;;;;;;5094234;28;20044;-64
2022/11/27 04:00:32;;;;;;;9.27;5.15;;;6.00;99.90;;;;;;5095119;28;20044;-63
2022/11/27 04:03:01;;;;;;;;;;;6.00;99.90;;;;;;5095072;28;20044;-63
2022/11/27 04:05:28;;;;;;;14.82;5.57;;;6.00;99.90;;;;;;5094078;28;19927;-64
2022/11/27 04:07:55;;;;;;;12.32;4.93;;;6.00;99.90;;;;;;5094783;28;20048;-64
2022/11/27 04:10:22;;;;;;;9.35;4.80;;;6.00;99.90;;;;;;5094273;28;20052;-64
2022/11/27 04:12:49;;;;;;;10.52;4.45;;;6.00;99.90;;;;;;5093736;28;20056;-64
2022/11/27 04:15:16;;;;;;;7.15;4.65;;;6.10;99.90;;;;;;5094002;28;20051;-64
2022/11/27 04:17:43;;;;;;;10.73;5.45;;;6.00;99.90;;;;;;5092870;28;20512;-64
2022/11/27 04:20:13;;;;;;;14.10;5.03;;;6.00;99.90;;;;;;5093743;28;20539;-64
2022/11/27 04:22:41;;;;;;;12.27;5.00;;;6.00;99.90;;;;;;5092874;28;20437;-64
2022/11/27 04:25:09;;;;;;;10.65;4.97;;;6.00;99.90;;;;;;5093059;28;20098;-63
2022/11/27 04:27:35;;;;;;;10.38;4.57;;;6.00;99.90;;;;;;5093449;28;20480;-63
2022/11/27 04:30:03;;;;;;;14.32;5.03;;;6.00;99.90;;;;;;5093546;28;20454;-63
2022/11/27 04:32:29;;;;;;;10.32;4.63;;;6.00;99.90;;;;;;5094016;28;20127;-63
2022/11/27 04:34:56;;;;;;;12.95;4.50;;;6.00;99.90;;;;;;5093501;28;20052;-63
2022/11/27 04:37:25;;;;;;;13.18;5.18;;;6.00;99.90;;;;;;5093241;28;20051;-64
2022/11/27 04:39:51;;;;;;;9.10;4.40;;;6.10;99.90;;;;;;5091796;28;20458;-64
2022/11/27 04:42:18;;;;;;;15.23;5.30;;;5.90;99.90;;;;;;5093922;28;20113;-64
2022/11/27 04:44:45;;;;;;;10.32;4.53;;;6.00;99.90;;;;;;5094457;28;20048;-64
2022/11/27 04:47:12;;;;;;;11.60;4.55;;;5.90;99.90;;;;;;5091673;28;20097;-64
2022/11/27 04:49:39;;;;;;;10.80;4.90;;;5.90;99.90;;;;;;5092794;28;20044;-64
2022/11/27 04:52:06;;;;;;;12.07;3.97;;;5.90;99.90;;;;;;5093284;28;20389;-64
2022/11/27 04:54:34;;;;;;;15.75;5.00;;;6.00;99.90;;;;;;5093264;28;20392;-64
2022/11/27 04:57:01;;;;;;;10.23;4.35;;;5.90;99.90;;;;;;5092830;28;20052;-64
2022/11/27 04:59:28;;;;;;;14.30;4.32;;;5.90;99.90;;;;;;5093367;28;20043;-64
2022/11/27 05:01:55;;;;;;;9.68;4.88;;;6.10;99.90;;;;;;5092764;28;20055;-64
2022/11/27 05:04:22;;;;;;;6.95;3.80;;;6.00;99.90;;;;;;5092879;28;20511;-64
2022/11/27 05:06:49;;;;;;;10.25;4.28;;;6.00;99.90;;;;;;5089626;28;20044;-64
2022/11/27 05:09:17;;;;;;;15.95;4.72;;;6.00;99.90;;;;;;5092752;28;20047;-65
2022/11/27 05:11:46;;;;;;;7.90;3.88;;;5.90;99.90;;;;;;5090584;28;20078;-65
2022/11/27 05:14:15;;;;;;;17.45;5.25;;;5.90;99.90;;;;;;5092017;28;20040;-65
2022/11/27 05:16:43;;;;;;;8.30;4.55;;;5.90;99.90;;;;;;5092328;28;20051;-65
2022/11/27 05:19:10;;;;;;;10.77;3.88;;;5.90;99.90;;;;;;5092071;28;20394;-65
2022/11/27 05:21:38;;;;;;;13.15;4.40;;;5.90;99.90;;;;;;5093074;28;20047;-65
2022/11/27 05:24:06;;;;;;;10.35;4.28;;;5.90;99.90;;;;;;5092308;28;20055;-64
2022/11/27 05:26:33;;;;;;;7.80;4.00;;;5.80;99.90;;;;;;5092167;28;20122;-63
2022/11/27 05:29:01;;;;;;;10.43;4.43;;;5.80;99.90;;;;;;5092686;28;20093;-64
2022/11/27 05:31:28;;;;;;;8.95;4.25;;;5.80;99.90;;;;;;5092276;28;20044;-64
2022/11/27 05:33:55;;;;;;;11.85;4.57;;;5.80;99.90;;;;;;5092256;28;20052;-64
2022/11/27 05:36:22;;;;;;;9.50;4.07;;;5.80;99.90;;;;;;5091662;28;20059;-64
2022/11/27 05:38:49;;;;;;;9.18;3.92;;;5.80;99.90;;;;;;5092762;28;20391;-64
2022/11/27 05:41:16;;;;;;;8.32;4.05;;;5.80;99.90;;;;;;5091257;28;20048;-64
2022/11/27 05:43:43;;;;;;;11.00;4.25;;;5.70;99.90;;;;;;5091703;28;20052;-64
2022/11/27 05:46:14;;;;;;;13.45;3.95;;;5.70;99.90;;;;;;5093080;28;20513;-63
2022/11/27 05:48:41;;;;;;;12.50;4.35;;;5.70;99.90;;;;;;5092389;28;20051;-63
2022/11/27 05:51:08;;;;;;;8.57;3.83;;;5.70;99.90;;;;;;5093105;28;20055;-63
2022/11/27 05:53:36;;;;;;;11.13;4.05;;;5.80;99.90;;;;;;5089453;28;20048;-63
2022/11/27 05:56:04;;;;;;;9.60;3.92;;;5.70;99.90;;;;;;5092281;28;20047;-65
2022/11/27 05:58:31;;;;;;;10.55;3.55;;;5.80;99.90;;;;;;5092530;28;20040;-65
2022/11/27 06:00:59;;;;;;;9.52;4.22;;;5.70;99.90;;;;;;5091135;28;20079;-65
2022/11/27 06:03:28;;;;;;;12.57;4.05;;;5.70;99.90;;;;;;5092493;28;20392;-65
2022/11/27 06:05:55;;;;;;;9.05;3.42;;;5.80;99.90;;;;;;5092952;28;20047;-65
2022/11/27 06:08:22;;;;;;;11.88;3.78;;;5.70;99.90;;;;;;5092680;28;20047;-65
2022/11/27 06:10:49;;;;;;;11.77;4.15;;;5.70;99.90;;;;;;5090770;28;20048;-65
2022/11/27 06:13:16;;;;;;;8.77;4.55;;;5.70;99.90;;;;;;5091441;28;20044;-66
2022/11/27 06:15:43;;;;;;;8.15;3.40;;;5.70;99.90;;;;;;5092824;28;20055;-65
2022/11/27 06:18:11;;;;;;;9.50;3.78;;;5.70;99.90;;;;;;5090595;28;20051;-64
2022/11/27 06:20:39;;;;;;;6.63;4.15;;;5.70;99.90;;;;;;5091549;28;20487;-65
2022/11/27 06:23:06;;;;;;;9.55;3.67;;;5.70;99.90;;;;;;5092497;28;20048;-65
2022/11/27 06:25:33;;;;;;;7.82;3.85;;;5.70;99.90;;;;;;5090671;28;20101;-64
2022/11/27 06:28:00;;;;;;;8.48;4.38;;;5.70;99.90;;;;;;5089935;28;20075;-65
2022/11/27 06:30:27;;;;;;;11.27;4.22;;;5.70;99.90;;;;;;5090870;28;20373;-65
2022/11/27 06:32:54;;;;;;;8.38;3.35;;;5.70;99.90;;;;;;5088834;28;20055;-64
2022/11/27 06:35:21;;;;;;;8.95;4.35;;;5.70;99.90;;;;;;5092232;28;20468;-65
2022/11/27 06:37:49;;;;;;;11.50;3.67;;;5.70;99.90;;;;;;5090499;28;20047;-65
2022/11/27 06:40:16;;;;;;;11.35;4.28;;;5.80;99.90;;;;;;5092136;28;20048;-65
2022/11/27 06:42:43;;;;;;;9.98;3.55;;;5.80;99.90;;;;;;5090635;28;20051;-65
2022/11/27 06:45:11;;;;;;;10.05;4.00;;;5.80;99.90;;;;;;5091791;28;20052;-63
2022/11/27 06:47:38;;;;;;;7.82;3.90;;;5.80;99.90;;;;;;5090888;28;20063;-64
2022/11/27 06:50:06;;;;;;;10.18;3.80;;;5.80;99.90;;;;;;5092184;28;20047;-64
2022/11/27 06:52:32;;;;;;;13.82;4.00;;;5.80;99.90;;;;;;5090041;28;20052;-64
2022/11/27 06:55:01;;;;;;;12.32;4.60;;;5.90;99.90;;;;;;5073586;28;20083;-64
2022/11/27 06:57:28;;;;;;;9.90;3.40;;;5.90;99.90;;;;;;5078403;28;20504;-64
2022/11/27 06:59:54;;;;;;;6.22;3.30;;;5.80;99.90;;;;;;5080383;28;20549;-62
2022/11/27 07:02:21;;;;;;;14.98;3.65;;;5.80;99.90;;;;;;5078661;28;20424;-64
2022/11/27 07:04:48;;;;;;;8.65;4.43;;;5.80;99.90;;;;;;5083291;28;20056;-63
2022/11/27 07:07:15;;;;;;;12.40;3.95;;;5.80;99.90;;;;;;5084223;28;20121;-64
2022/11/27 07:09:42;;;;;;;9.05;4.03;;;5.80;99.90;;;;;;5086978;28;20144;-65
2022/11/27 07:12:10;;;;;;;12.57;4.80;;;5.80;99.90;;;;;;5083382;28;20056;-64
2022/11/27 07:14:37;;;;;;;8.43;3.78;;;5.80;99.90;;;;;;5089364;28;20056;-65
2022/11/27 07:17:04;;;;;;;9.80;3.60;;;5.80;99.90;;;;;;5084533;28;20055;-64
2022/11/27 07:19:31;;;;;;;8.65;4.28;;;5.80;99.90;;;;;;5084097;28;20051;-64
2022/11/27 07:21:58;;;;;;;8.60;3.78;;;5.80;99.90;;;;;;5083368;28;20064;-64
2022/11/27 07:24:25;;;;;;;7.72;3.60;;;5.80;99.90;;;;;;5081958;28;20052;-63
2022/11/27 07:26:51;;;;;;;7.93;3.70;;;5.80;99.90;;;;;;5085141;28;20040;-65
2022/11/27 07:29:20;;;;;;;10.57;4.13;;;5.80;99.90;;;;;;5088091;28;20044;-65
2022/11/27 07:31:49;;;;;;;8.50;3.55;;;5.80;99.90;;;;;;5085075;28;20047;-66
2022/11/27 07:34:16;;;;;;;8.50;3.58;;;5.80;99.90;;;;;;5089111;28;20045;-65
2022/11/27 07:36:43;;;;;;;8.52;4.00;;;5.80;99.90;;;;;;5088839;28;20048;-66
2022/11/27 07:39:10;;;;;;;7.18;3.53;;;5.80;99.90;;;;;;5084342;28;20044;-66
2022/11/27 07:41:36;;;;;;;8.07;3.83;;;5.70;99.90;;;;;;5087986;28;20510;-67
2022/11/27 07:44:04;;;;;;;8.75;3.75;;;5.80;99.90;;;;;;5089107;28;20064;-64
2022/11/27 07:46:32;;;;;;;9.65;4.05;;;5.80;99.90;;;;;;5083804;28;20048;-66
2022/11/27 07:49:00;;;;;;;9.32;4.03;;;5.80;99.90;;;;;;5082592;28;20113;-66
2022/11/27 07:51:27;;;;;;;9.52;4.75;;;5.80;99.90;;;;;;5083440;28;20503;-66
2022/11/27 07:53:54;;;;;;;7.20;3.45;;;5.80;99.90;;;;;;5087995;28;20532;-66
2022/11/27 07:56:21;;;;;;;7.25;4.15;;;5.80;99.90;;;;;;5087111;28;20492;-67
2022/11/27 07:58:49;;;;;;;12.95;3.92;;;5.90;99.90;;;;;;5083376;28;20060;-66
2022/11/27 08:01:17;;;;;;;9.95;3.60;;;5.90;99.90;;;;;;5090065;28;20040;-66
2022/11/27 08:03:46;;;;;;;9.77;4.45;;;5.90;99.90;;;;;;5084806;28;20051;-66
2022/11/27 08:06:18;;;;;;;7.82;4.20;;;5.90;99.90;;;;;;5084939;28;20059;-67
2022/11/27 08:08:45;;;;;;;7.55;4.00;;;6.00;99.90;;;;;;5082344;28;20059;-67
2022/11/27 08:11:21;;;;;;;8.68;3.90;;;6.10;99.90;;;;;;5082351;28;20060;-65
2022/11/27 08:13:49;;;;;;;12.73;4.95;;;6.10;99.90;;;;;;5088133;28;20507;-65
2022/11/27 08:16:16;;;;;;;10.15;4.88;;;6.10;99.90;;;;;;5083249;28;20048;-65
2022/11/27 08:18:43;;;;;;;9.65;4.32;;;6.10;99.90;;;;;;5080484;28;20048;-65
2022/11/27 08:21:11;;;;;;;10.95;4.05;;;6.10;99.90;;;;;;5090095;28;20051;-66
2022/11/27 08:23:38;;;;;;;8.70;4.68;;;6.10;99.90;;;;;;5082823;28;20056;-66
2022/11/27 08:26:06;;;;;;;8.80;4.80;;;6.10;99.90;;;;;;5089115;28;20043;-66
2022/11/27 08:28:33;;;;;;;8.98;4.30;;;6.10;99.90;;;;;;5091416;28;20445;-67
2022/11/27 08:31:02;;;;;;;7.25;4.57;;;6.10;99.90;;;;;;5079806;28;20090;-67
2022/11/27 08:33:29;;;;;;;8.57;4.55;;;6.00;99.90;;;;;;5082220;28;20056;-67
2022/11/27 08:35:56;;;;;;;8.27;4.55;;;6.10;99.90;;;;;;5088391;28;20063;-67
2022/11/27 08:38:24;;;;;;;8.40;4.10;;;6.10;99.90;;;;;;5082857;28;20462;-67
2022/11/27 08:40:56;;;;;;;12.60;5.15;;;6.10;99.90;;;;;;5090203;28;20503;-67
2022/11/27 08:43:23;;;;;;;11.75;4.53;;;6.10;99.90;;;;;;5084670;28;20052;-67
2022/11/27 08:45:50;;;;;;;11.55;4.28;;;6.00;99.90;;;;;;5085898;28;20049;-67
2022/11/27 08:48:17;;;;;;;7.75;5.25;;;6.10;99.90;;;;;;5088345;28;20059;-66
2022/11/27 08:50:45;;;;;;;9.80;4.18;;;6.10;99.90;;;;;;5083562;28;20059;-67
2022/11/27 08:53:12;;;;;;;8.07;4.85;;;6.10;99.90;;;;;;5089707;28;20051;-67
2022/11/27 08:55:40;;;;;;;9.25;4.63;;;6.00;99.90;;;;;;5085727;28;20431;-67
2022/11/27 08:58:07;;;;;;;11.65;4.65;;;6.10;99.90;;;;;;5084268;28;20052;-67
2022/11/27 09:00:35;;;;;;;10.93;4.97;;;6.10;99.90;;;;;;5088775;28;20044;-67
2022/11/27 09:03:02;;;;;;;10.20;4.63;;;6.10;99.90;;;;;;5086223;28;20126;-67
2022/11/27 09:05:29;;;;;;;9.52;4.40;;;6.10;99.90;;;;;;5087678;28;20048;-67
2022/11/27 09:07:57;;;;;;;10.52;4.85;;;6.10;99.90;;;;;;5086180;28;20571;-67
2022/11/27 09:10:24;;;;;;;13.07;5.22;;;6.10;99.90;;;;;;5090751;28;20503;-66
2022/11/27 09:12:54;;;;;;;7.88;4.38;;;6.10;99.90;;;;;;5086490;28;20400;-67
2022/11/27 09:15:22;;;;;;;12.18;5.38;;;6.10;99.90;;;;;;5087222;28;20131;-67
2022/11/27 09:17:48;;;;;;;12.48;5.78;;;6.10;99.90;;;;;;5089362;28;20082;-67
2022/11/27 09:20:15;;;;;;;10.68;5.28;;;6.10;99.90;;;;;;5087943;28;20040;-67
2022/11/27 09:22:42;;;;;;;14.25;5.82;;;6.10;99.90;;;;;;5087239;28;20072;-67
2022/11/27 09:25:09;;;;;;;14.43;6.28;;;6.10;99.90;;;;;;5084486;28;20075;-67
2022/11/27 09:27:37;;;;;;;13.32;5.20;;;6.10;99.90;;;;;;5083455;28;20056;-67
2022/11/27 09:30:08;;;;;;;10.82;5.95;;;6.00;99.90;;;;;;5091528;28;20044;-66
2022/11/27 09:32:35;;;;;;;11.43;5.55;;;6.00;99.90;;;;;;5087915;28;20507;-67
2022/11/27 09:35:02;;;;;;;12.02;5.22;;;6.00;99.90;;;;;;5082007;28;20414;-67
2022/11/27 09:37:28;;;;;;;11.90;5.68;;;6.00;99.90;;;;;;5084736;28;20109;-66
2022/11/27 09:39:56;;;;;;;10.82;5.57;;;6.00;99.90;;;;;;5090032;28;20048;-67
2022/11/27 09:42:38;;;;;;;15.13;6.35;;;6.00;99.90;;;;;;5083687;28;20055;-66
2022/11/27 09:45:12;;;;;;;15.80;6.60;;;6.00;99.90;;;;;;5084480;28;20124;-66
2022/11/27 09:47:44;;;;;;;9.70;5.50;;;6.00;99.90;;;;;;5085905;28;20385;-66
2022/11/27 09:50:15;;;;;;;11.30;5.82;;;6.00;99.90;;;;;;5085471;28;20056;-65
2022/11/27 09:52:46;;;;;;;13.10;6.35;;;6.10;99.90;;;;;;5088318;28;20566;-66
2022/11/27 09:55:15;;;;;;;;;;;6.00;99.90;;;;;;5086733;28;20050;-71
2022/11/27 09:57:43;;;;;;;10.27;5.93;;;6.00;99.90;;;;;;5083925;28;20016;-70
2022/11/27 10:00:17;;;;;;;10.68;5.35;;;6.00;99.90;;;;;;5090194;28;20475;-62
2022/11/27 10:02:44;;;;;;;11.85;6.00;;;6.00;99.90;;;;;;5083657;28;20070;-62
2022/11/27 10:05:18;;;;;;;13.40;5.35;;;6.00;99.90;;;;;;5083870;28;20126;-63
2022/11/27 10:08:13;;;;;;;11.70;6.57;;;6.00;99.90;;;;;;5084042;28;20094;-64
2022/11/27 10:10:46;;;;;;;16.58;7.50;;;6.00;99.90;;;;;;5090132;28;20044;-64
2022/11/27 10:13:35;;;;;;;13.77;6.32;;;6.00;99.90;;;;;;5086713;28;20047;-63
2022/11/27 10:16:10;;;;;;;12.13;5.55;;;6.00;99.90;;;;;;5084921;28;20052;-64
2022/11/27 10:18:40;;;;;;;12.00;6.07;;;6.00;99.90;;;;;;5084016;28;20048;-62
2022/11/27 10:21:14;;;;;;;12.90;6.18;;;6.00;99.90;;;;;;5087454;28;20048;-64
2022/11/27 10:23:46;;;;;;;11.93;5.47;;;6.00;99.90;;;;;;5088066;28;20490;-64
2022/11/27 10:26:18;;;;;;;15.45;6.07;;;6.00;99.90;;;;;;5084776;28;20052;-65
2022/11/27 10:28:56;;;;;;;14.10;6.20;;;6.00;99.90;;;;;;5085748;28;20051;-64
2022/11/27 10:31:33;;;;;;;10.60;5.85;;;6.00;99.90;;;;;;5082511;28;20050;-64
2022/11/27 10:34:03;;;;;;;10.52;5.50;;;6.00;99.90;;;;;;5084330;28;20047;-64
2022/11/27 10:36:35;;;;;;;13.13;6.68;;;5.90;99.90;;;;;;5085886;28;20412;-66
2022/11/27 10:39:04;;;;;;;13.38;5.65;;;5.90;99.90;;;;;;5084285;28;20499;-64
2022/11/27 10:41:34;;;;;;;10.38;6.07;;;5.90;99.90;;;;;;5084913;28;20049;-64
2022/11/27 10:44:22;;;;;;;15.90;7.13;;;5.90;99.90;;;;;;5083597;28;20131;-64
2022/11/27 10:46:53;;;;;;;11.05;5.88;;;6.00;99.90;;;;;;5082496;28;20044;-64
2022/11/27 10:49:20;;;;;;;11.98;6.82;;;6.00;99.90;;;;;;5087908;28;20109;-64
2022/11/27 10:51:46;;;;;;;12.65;6.55;;;6.00;99.90;;;;;;5084034;28;20381;-64
2022/11/27 10:54:22;;;;;;;13.18;7.07;;;6.00;99.90;;;;;;5086986;28;20054;-64
2022/11/27 10:57:04;;;;;;;15.43;6.63;;;6.00;99.90;;;;;;5087384;28;20071;-62
2022/11/27 10:59:36;;;;;;;12.80;6.82;;;6.00;99.90;;;;;;5083460;28;20055;-62
2022/11/27 11:02:07;;;;;;;14.85;6.85;;;6.00;99.90;;;;;;5081826;28;20380;-64
2022/11/27 11:04:34;;;;;;;;;;;6.10;99.90;;;;;;5080425;28;20598;-64
2022/11/27 11:07:01;;;;;;;12.63;5.82;;;6.10;99.90;;;;;;5085230;28;19975;-64
2022/11/27 11:09:29;;;;;;;13.38;6.70;;;6.00;99.90;;;;;;5089732;28;20067;-63
2022/11/27 11:12:06;;;;;;;11.82;6.45;;;6.10;99.90;;;;;;5084985;28;20048;-63
2022/11/27 11:14:33;;;;;;;11.82;7.03;;;6.10;99.90;;;;;;5080652;28;20158;-63
2022/11/27 11:17:00;;;;;;;15.15;6.68;;;6.10;99.90;;;;;;5081218;28;20113;-62
2022/11/27 11:19:33;;;;;;;12.30;6.10;;;6.10;99.90;;;;;;5084082;28;20048;-64
2022/11/27 11:22:04;;;;;;;9.77;6.30;;;6.10;99.90;;;;;;5087833;28;20048;-64
2022/11/27 11:24:32;;;;;;;11.63;6.45;;;6.10;99.90;;;;;;5084272;28;20055;-64
2022/11/27 11:27:04;;;;;;;11.77;6.25;;;6.10;99.90;;;;;;5081687;28;20131;-64
2022/11/27 11:29:35;;;;;;;14.18;6.95;;;6.10;99.90;;;;;;5090210;28;20496;-64
2022/11/27 11:32:12;;;;;;;8.63;5.20;;;6.20;99.90;;;;;;5085312;28;20059;-64
2022/11/27 11:34:45;;;;;;;11.82;6.45;;;6.20;99.90;;;;;;5087813;28;20136;-64
2022/11/27 11:37:23;;;;;;;10.50;5.75;;;6.20;99.90;;;;;;5083547;28;20415;-62
2022/11/27 11:39:55;;;;;;;9.60;5.75;;;6.30;99.90;;;;;;5083486;28;20048;-64
2022/11/27 11:42:24;;;;;;;10.82;6.00;;;6.20;99.90;;;;;;5079847;28;20502;-64
2022/11/27 11:44:52;;;;;;;9.43;5.95;;;6.20;99.90;;;;;;5080854;28;20056;-64
2022/11/27 11:47:23;;;;;;;13.38;7.00;;;6.30;99.90;;;;;;5081944;28;20045;-64
2022/11/27 11:49:52;;;;;;;;;;;6.30;99.90;;;;;;5082042;28;20048;-64
2022/11/27 11:52:30;;;;;;;8.52;5.78;;;6.30;99.90;;;;;;5088710;28;19928;-64
2022/11/27 11:55:03;;;;;;;10.10;5.70;;;6.30;99.90;;;;;;5084619;28;20052;-65
2022/11/27 11:58:10;;;;;;;17.95;6.90;;;6.30;99.90;;;;;;5085150;28;20147;-64
2022/11/27 12:00:47;;;;;;;11.85;5.70;;;6.30;99.90;;;;;;5031227;28;20050;-64
2022/11/27 12:03:26;;;;;;;7.82;5.75;;;6.30;99.90;;;;;;5087539;28;20044;-62
2022/11/27 12:06:10;;;;;;;12.40;6.22;;;6.30;99.90;;;;;;5091242;28;20044;-64
2022/11/27 12:09:00;;;;;;;15.15;6.03;;;6.30;99.90;;;;;;5086269;28;20057;-64
2022/11/27 12:11:37;;;;;;;10.65;5.93;;;6.30;99.90;;;;;;5088286;28;20048;-64
2022/11/27 12:14:18;;;;;;;12.25;6.15;;;6.30;99.90;;;;;;5086306;28;20047;-64
2022/11/27 12:17:02;;;;;;;11.75;5.40;;;6.30;99.90;;;;;;5083729;28;20056;-64
2022/11/27 12:20:11;;;;;;;11.68;6.50;;;6.30;99.90;;;;;;5086075;28;20127;-65
2022/11/27 12:23:12;;;;;;;9.82;5.85;;;6.30;99.90;;;;;;5009646;28;20564;-64
2022/11/27 12:25:46;;;;;;;12.02;5.65;;;6.30;99.90;;;;;;5011219;28;20510;-64
2022/11/27 12:28:32;;;;;;;12.45;5.70;;;6.40;99.90;;;;;;5061926;28;20047;-64
2022/11/27 12:31:06;;;;;;;12.40;5.45;;;6.30;99.90;;;;;;5086407;28;20060;-64
2022/11/27 12:33:44;;;;;;;11.05;5.82;;;6.40;99.90;;;;;;5086739;28;20051;-64
2022/11/27 12:36:21;;;;;;;9.45;5.20;;;6.40;99.90;;;;;;5091713;28;20044;-64
2022/11/27 12:39:09;;;;;;;9.30;5.50;;;6.40;99.90;;;;;;5084535;28;20052;-64
2022/11/27 12:41:59;;;;;;;15.07;6.45;;;6.40;99.90;;;;;;5090264;28;20040;-65
2022/11/27 12:44:35;;;;;;;10.75;5.93;;;6.50;99.90;;;;;;5082547;28;20167;-64
2022/11/27 12:47:08;;;;;;;12.93;6.57;;;6.50;99.90;;;;;;5085455;28;20051;-64
2022/11/27 12:49:42;;;;;;;11.77;5.80;;;6.40;99.90;;;;;;5086933;28;20048;-64
2022/11/27 12:52:16;;;;;;;9.05;5.40;;;6.50;99.90;;;;;;5090548;28;20075;-64
2022/11/27 12:54:50;;;;;;;11.85;6.30;;;6.40;99.90;;;;;;5084904;28;20498;-68
2022/11/27 12:57:20;;;;;;;9.90;5.32;;;6.40;99.90;;;;;;5085665;28;20044;-66
2022/11/27 12:59:53;;;;;;;8.90;5.53;;;6.40;99.90;;;;;;5090200;28;20102;-64
2022/11/27 13:02:33;;;;;;;9.88;5.65;;;6.40;99.90;;;;;;5086688;28;20036;-63
2022/11/27 13:05:04;;;;;;;10.23;5.70;;;6.40;99.90;;;;;;5084642;28;20056;-64